Time;durP1;ratioP1;P1;durP2;ratioP2;P2;SDS_P1;SDS_P2;PMS_P1;PMS_P2;Temp;Humidity;BMP_temperature;BMP_pressure;BME280_temperature;BME280_humidity;BME280_pressure;Samples;Min_cycle;Max_cycle;Signal;HPM_P1;HPM_P2
2022/10/25 00:01:45;;;;;;;12.25;5.68;;;11.40;92.70;;;;;;5053106;28;20056;-55
2022/10/25 00:04:12;;;;;;;12.18;5.90;;;11.40;92.60;;;;;;5052068;28;20119;-55
2022/10/25 00:06:39;;;;;;;10.80;4.93;;;11.40;92.70;;;;;;5016512;28;20417;-57
2022/10/25 00:09:06;;;;;;;18.05;5.93;;;11.40;92.60;;;;;;5045327;28;20024;-58
2022/10/25 00:11:33;;;;;;;29.25;8.40;;;11.40;92.60;;;;;;5049073;28;20052;-58
2022/10/25 00:14:03;;;;;;;16.58;5.60;;;11.40;92.70;;;;;;5051856;28;20032;-56
2022/10/25 00:16:36;;;;;;;20.27;5.72;;;11.30;92.70;;;;;;5051127;28;20033;-57
2022/10/25 00:19:04;;;;;;;9.98;5.45;;;11.30;92.60;;;;;;5017161;28;20040;-56
2022/10/25 00:21:31;;;;;;;16.08;5.80;;;11.30;92.60;;;;;;5053344;28;20032;-59
2022/10/25 00:24:01;;;;;;;16.45;6.20;;;11.30;92.60;;;;;;5052949;28;20029;-58
2022/10/25 00:26:27;;;;;;;;;;;11.20;92.60;;;;;;5053604;28;20028;-58
2022/10/25 00:28:54;;;;;;;12.43;5.60;;;11.30;92.70;;;;;;5047773;28;19909;-58
2022/10/25 00:31:22;;;;;;;22.98;6.20;;;11.20;92.70;;;;;;5045263;28;20087;-58
2022/10/25 00:33:50;;;;;;;17.67;6.13;;;11.20;92.60;;;;;;5052290;28;20033;-56
2022/10/25 00:36:34;;;;;;;22.80;7.15;;;11.20;92.70;;;;;;5051817;28;20048;-57
2022/10/25 00:39:00;;;;;;;18.50;7.32;;;11.20;92.70;;;;;;5052381;28;20033;-58
2022/10/25 00:41:30;;;;;;;13.68;6.57;;;11.20;92.70;;;;;;5020906;28;20036;-58
2022/10/25 00:44:36;;;;;;;12.35;5.97;;;11.20;92.70;;;;;;5045100;28;20033;-58
2022/10/25 00:47:20;;;;;;;14.50;7.30;;;11.20;92.80;;;;;;5028691;28;20041;-58
2022/10/25 00:50:17;;;;;;;13.25;7.20;;;11.20;92.80;;;;;;5029718;28;20045;-57
2022/10/25 00:52:50;;;;;;;15.43;8.38;;;11.20;92.80;;;;;;5031484;28;20030;-56
2022/10/25 00:55:21;;;;;;;20.33;8.55;;;11.20;92.80;;;;;;5011664;28;20041;-58
2022/10/25 00:58:02;;;;;;;16.73;8.50;;;11.20;92.90;;;;;;5034947;28;20034;-55
2022/10/25 01:00:29;;;;;;;14.13;7.68;;;11.30;92.90;;;;;;5014203;28;20053;-52
2022/10/25 01:02:56;;;;;;;18.00;8.05;;;11.30;93.00;;;;;;5032270;28;20485;-57
2022/10/25 01:05:23;;;;;;;16.85;8.40;;;11.30;93.00;;;;;;5027608;28;20093;-58
2022/10/25 01:07:53;;;;;;;16.88;9.93;;;11.20;93.00;;;;;;5028442;28;20022;-59
2022/10/25 01:10:20;;;;;;;16.63;9.40;;;11.20;93.00;;;;;;5017163;28;20046;-58
2022/10/25 01:12:46;;;;;;;16.45;9.70;;;11.40;93.20;;;;;;5032873;28;20059;-56
2022/10/25 01:15:13;;;;;;;18.20;11.07;;;11.40;93.20;;;;;;4998935;28;20038;-58
2022/10/25 01:18:09;;;;;;;16.98;9.90;;;11.40;93.20;;;;;;5019955;28;20026;-58
2022/10/25 01:21:03;;;;;;;25.92;11.90;;;11.40;93.20;;;;;;5031063;28;20021;-59
2022/10/25 01:24:13;;;;;;;21.77;11.15;;;11.40;93.20;;;;;;5032117;28;20067;-57
2022/10/25 01:26:53;;;;;;;15.82;10.30;;;11.40;93.20;;;;;;5027646;28;20112;-58
2022/10/25 01:29:46;;;;;;;19.27;10.25;;;11.40;93.20;;;;;;5030669;28;20092;-55
2022/10/25 01:32:30;;;;;;;15.63;10.18;;;11.40;93.30;;;;;;5023684;28;20109;-57
2022/10/25 01:35:11;;;;;;;19.33;12.18;;;11.40;93.20;;;;;;5020795;28;20072;-57
2022/10/25 01:38:04;;;;;;;20.52;11.50;;;11.40;93.30;;;;;;5036791;28;20025;-58
2022/10/25 01:40:52;;;;;;;20.60;11.88;;;11.40;93.30;;;;;;5011238;28;20037;-56
2022/10/25 01:43:39;;;;;;;23.02;12.43;;;11.40;93.30;;;;;;5018151;28;20087;-58
2022/10/25 01:46:30;;;;;;;17.48;11.35;;;11.40;93.30;;;;;;5030139;28;20041;-59
2022/10/25 01:49:25;;;;;;;21.65;12.07;;;11.30;93.30;;;;;;5034863;28;20133;-59
2022/10/25 01:51:52;;;;;;;18.10;11.48;;;11.40;93.40;;;;;;5026762;28;20041;-59
2022/10/25 01:54:21;;;;;;;21.33;11.55;;;11.40;93.30;;;;;;5050451;28;20324;-59
2022/10/25 01:57:21;;;;;;;20.50;12.25;;;11.30;93.30;;;;;;5038519;28;20026;-55
2022/10/25 02:00:02;;;;;;;19.40;12.13;;;11.30;93.30;;;;;;4989122;28;20037;-59
2022/10/25 02:02:49;;;;;;;19.52;11.80;;;11.30;93.40;;;;;;5026976;28;20021;-59
2022/10/25 02:05:21;;;;;;;21.35;13.90;;;11.30;93.40;;;;;;5054481;28;20366;-59
2022/10/25 02:07:54;;;;;;;26.27;13.05;;;11.30;93.40;;;;;;5039228;28;20021;-59
2022/10/25 02:10:30;;;;;;;22.23;13.02;;;11.30;93.40;;;;;;5055506;28;20090;-59
2022/10/25 02:13:26;;;;;;;23.20;13.90;;;11.30;93.50;;;;;;5049726;28;20100;-59
2022/10/25 02:16:08;;;;;;;17.58;12.50;;;11.30;93.50;;;;;;5028872;28;20025;-59
2022/10/25 02:18:40;;;;;;;23.95;13.98;;;11.40;93.60;;;;;;5049372;28;20044;-58
2022/10/25 02:21:11;;;;;;;27.02;14.95;;;11.50;93.70;;;;;;5048316;28;20046;-55
2022/10/25 02:23:38;;;;;;;27.30;16.02;;;11.60;93.90;;;;;;5021246;28;20032;-58
2022/10/25 02:26:09;;;;;;;28.15;16.38;;;11.70;94.00;;;;;;5037625;28;20037;-55
2022/10/25 02:28:41;;;;;;;28.67;17.20;;;11.80;94.10;;;;;;5034998;28;20033;-55
2022/10/25 02:31:17;;;;;;;32.88;17.70;;;11.90;94.10;;;;;;5040588;28;20052;-57
2022/10/25 02:33:46;;;;;;;30.08;16.90;;;12.00;94.10;;;;;;5046737;28;20455;-54
2022/10/25 02:36:19;;;;;;;31.83;17.98;;;12.10;94.10;;;;;;5034863;28;20061;-57
2022/10/25 02:38:48;;;;;;;34.30;17.88;;;12.20;94.10;;;;;;5045289;28;20098;-55
2022/10/25 02:41:15;;;;;;;31.08;18.20;;;12.20;94.10;;;;;;5052626;28;20126;-57
2022/10/25 02:43:42;;;;;;;24.33;16.05;;;12.30;94.10;;;;;;5041784;28;20143;-54
2022/10/25 02:46:13;;;;;;;26.83;16.50;;;12.30;94.00;;;;;;5030863;28;20035;-57
2022/10/25 02:48:44;;;;;;;31.45;17.27;;;12.30;94.00;;;;;;5031154;28;20140;-56
2022/10/25 02:51:12;;;;;;;28.27;17.63;;;12.40;94.00;;;;;;5051037;28;20026;-57
2022/10/25 02:53:39;;;;;;;28.83;17.98;;;12.40;94.00;;;;;;5048103;28;20029;-58
2022/10/25 02:56:19;;;;;;;36.70;18.73;;;12.40;94.00;;;;;;5044258;28;20115;-52
2022/10/25 02:58:46;;;;;;;;;;;12.40;94.00;;;;;;5036313;28;20061;-56
2022/10/25 03:01:14;;;;;;;35.63;17.80;;;12.50;94.00;;;;;;5048694;28;19935;-56
2022/10/25 03:03:44;;;;;;;30.73;17.63;;;12.50;94.00;;;;;;5030485;28;20032;-52
2022/10/25 03:06:11;;;;;;;;;;;12.50;93.90;;;;;;5046403;28;20033;-57
2022/10/25 03:08:38;;;;;;;28.55;17.27;;;12.50;93.90;;;;;;5046523;28;19909;-53
2022/10/25 03:11:06;;;;;;;31.23;20.10;;;12.60;93.90;;;;;;5031784;28;20478;-53
2022/10/25 03:13:36;;;;;;;34.35;20.85;;;12.60;93.90;;;;;;5027248;28;20034;-56
2022/10/25 03:16:07;;;;;;;;;;;12.70;93.90;;;;;;5045595;28;20343;-55
2022/10/25 03:18:36;;;;;;;33.95;20.63;;;12.70;93.90;;;;;;5052296;28;19959;-53
2022/10/25 03:21:04;;;;;;;33.65;20.80;;;12.70;93.90;;;;;;5053089;28;20576;-52
2022/10/25 03:23:31;;;;;;;37.72;21.33;;;12.70;93.90;;;;;;5053231;28;20036;-56
2022/10/25 03:25:59;;;;;;;37.75;20.35;;;12.80;93.90;;;;;;5042730;28;20022;-55
2022/10/25 03:28:27;;;;;;;36.58;20.80;;;12.80;93.90;;;;;;5048290;28;20025;-55
2022/10/25 03:30:55;;;;;;;40.33;21.27;;;12.80;93.90;;;;;;5051130;28;20394;-53
2022/10/25 03:33:22;;;;;;;38.20;21.55;;;12.80;93.90;;;;;;5051486;28;20029;-53
2022/10/25 03:35:55;;;;;;;40.35;20.65;;;12.80;93.80;;;;;;5046544;28;20025;-56
2022/10/25 03:38:23;;;;;;;35.00;21.83;;;12.90;93.80;;;;;;5047535;28;20029;-54
2022/10/25 03:40:49;;;;;;;34.47;22.17;;;12.90;93.80;;;;;;5041931;28;20037;-55
2022/10/25 03:43:16;;;;;;;33.80;21.27;;;12.90;93.80;;;;;;5053697;28;20067;-55
2022/10/25 03:45:43;;;;;;;40.13;21.15;;;12.90;93.80;;;;;;5049528;28;20035;-55
2022/10/25 03:48:10;;;;;;;34.28;22.17;;;12.90;93.80;;;;;;5032413;28;20045;-53
2022/10/25 03:50:37;;;;;;;36.88;22.98;;;12.90;93.80;;;;;;5032262;28;20032;-56
2022/10/25 03:53:05;;;;;;;35.88;20.77;;;12.90;93.70;;;;;;5031176;28;20021;-55
2022/10/25 03:55:32;;;;;;;38.25;21.40;;;12.90;93.70;;;;;;5031776;28;20034;-54
2022/10/25 03:57:59;;;;;;;34.22;22.40;;;12.90;93.70;;;;;;5031364;28;20505;-55
2022/10/25 04:00:27;;;;;;;38.78;23.50;;;12.90;93.60;;;;;;5033094;28;20079;-54
2022/10/25 04:02:58;;;;;;;29.60;20.83;;;12.90;93.60;;;;;;5030841;28;20040;-54
2022/10/25 04:05:26;;;;;;;32.00;20.80;;;12.90;93.60;;;;;;5029140;28;20116;-49
2022/10/25 04:07:53;;;;;;;34.33;22.45;;;12.90;93.60;;;;;;5028529;28;20064;-52
2022/10/25 04:10:20;;;;;;;32.03;22.02;;;12.90;93.60;;;;;;5031752;28;20034;-50
2022/10/25 04:12:47;;;;;;;36.03;22.38;;;12.90;93.60;;;;;;5032348;28;20040;-52
2022/10/25 04:15:17;;;;;;;28.15;20.90;;;12.90;93.50;;;;;;5033336;28;20033;-51
2022/10/25 04:17:48;;;;;;;24.77;20.20;;;12.90;93.50;;;;;;5031219;28;20451;-50
2022/10/25 04:20:15;;;;;;;30.92;20.60;;;13.00;93.50;;;;;;5031522;28;20401;-56
2022/10/25 04:22:44;;;;;;;29.45;21.88;;;12.90;93.40;;;;;;5032448;28;20029;-54
2022/10/25 04:25:11;;;;;;;27.75;18.85;;;13.00;93.40;;;;;;5033331;28;20078;-49
2022/10/25 04:27:44;;;;;;;35.80;20.02;;;13.00;93.40;;;;;;5031491;28;20415;-52
2022/10/25 04:30:11;;;;;;;24.50;18.25;;;13.00;93.40;;;;;;5031960;28;20075;-53
2022/10/25 04:32:40;;;;;;;26.50;20.25;;;13.00;93.30;;;;;;5030711;28;20149;-52
2022/10/25 04:35:07;;;;;;;35.75;20.17;;;13.00;93.30;;;;;;5031572;28;20040;-50
2022/10/25 04:37:34;;;;;;;26.63;17.63;;;13.00;93.30;;;;;;5031381;28;20033;-50
2022/10/25 04:40:00;;;;;;;21.58;18.38;;;13.00;93.30;;;;;;5027978;28;20042;-51
2022/10/25 04:42:26;;;;;;;28.13;18.80;;;13.00;93.30;;;;;;5025774;28;20044;-53
2022/10/25 04:44:53;;;;;;;28.50;19.05;;;13.00;93.30;;;;;;5031509;28;20072;-54
2022/10/25 04:47:20;;;;;;;28.17;18.90;;;13.00;93.30;;;;;;5031035;28;20343;-53
2022/10/25 04:49:47;;;;;;;21.98;17.90;;;13.10;93.30;;;;;;5031706;28;20132;-51
2022/10/25 04:52:14;;;;;;;26.02;17.55;;;13.00;93.30;;;;;;5027103;28;20029;-51
2022/10/25 04:54:42;;;;;;;25.15;16.88;;;13.00;93.30;;;;;;5031497;28;20085;-49
2022/10/25 04:57:12;;;;;;;28.77;17.42;;;13.10;93.30;;;;;;5032201;28;20038;-51
2022/10/25 04:59:39;;;;;;;31.92;17.55;;;13.10;93.30;;;;;;5028340;28;20022;-53
2022/10/25 05:02:06;;;;;;;22.70;15.38;;;13.10;93.30;;;;;;5032196;28;20108;-50
2022/10/25 05:04:33;;;;;;;23.05;16.75;;;13.20;93.30;;;;;;5032468;28;20053;-49
2022/10/25 05:07:00;;;;;;;27.90;17.20;;;13.10;93.20;;;;;;5031953;28;20025;-53
2022/10/25 05:09:27;;;;;;;29.38;18.35;;;13.10;93.20;;;;;;5030717;28;20033;-53
2022/10/25 05:11:55;;;;;;;24.70;16.95;;;13.10;93.20;;;;;;5035086;28;20034;-48
2022/10/25 05:14:22;;;;;;;26.50;18.13;;;13.20;93.20;;;;;;5035819;28;20035;-49
2022/10/25 05:16:49;;;;;;;27.65;16.92;;;13.10;93.20;;;;;;5033227;28;20060;-50
2022/10/25 05:19:15;;;;;;;23.67;15.70;;;13.20;93.20;;;;;;5034122;28;20025;-49
2022/10/25 05:21:43;;;;;;;21.25;16.13;;;13.10;93.20;;;;;;5034881;28;20031;-49
2022/10/25 05:24:09;;;;;;;21.20;16.38;;;13.20;93.20;;;;;;5030613;28;20489;-48
2022/10/25 05:26:36;;;;;;;25.13;16.25;;;13.20;93.20;;;;;;5017577;28;20030;-48
2022/10/25 05:29:03;;;;;;;20.02;14.52;;;13.20;93.20;;;;;;5034949;28;20477;-48
2022/10/25 05:31:30;;;;;;;24.38;15.27;;;13.10;93.10;;;;;;5035783;28;20389;-49
2022/10/25 05:33:59;;;;;;;26.95;14.82;;;13.10;93.10;;;;;;5034639;28;20180;-48
2022/10/25 05:36:28;;;;;;;30.55;16.48;;;13.10;93.10;;;;;;5035406;28;20331;-49
2022/10/25 05:38:57;;;;;;;24.13;16.35;;;13.10;93.10;;;;;;5036380;28;20021;-48
2022/10/25 05:41:24;;;;;;;20.77;14.90;;;13.20;93.10;;;;;;5035788;28;20078;-48
2022/10/25 05:43:51;;;;;;;21.35;16.08;;;13.10;92.90;;;;;;5034607;28;20036;-48
2022/10/25 05:46:20;;;;;;;21.90;16.05;;;13.10;92.90;;;;;;5036162;28;20045;-48
2022/10/25 05:48:50;;;;;;;22.83;15.00;;;13.00;92.90;;;;;;5046139;28;20060;-48
2022/10/25 05:51:22;;;;;;;23.48;15.60;;;13.00;92.90;;;;;;5053373;28;20382;-48
2022/10/25 05:53:54;;;;;;;18.35;13.45;;;12.90;92.90;;;;;;5043685;28;20104;-48
2022/10/25 05:56:26;;;;;;;22.83;14.13;;;12.90;92.90;;;;;;5054200;28;20029;-48
2022/10/25 05:58:56;;;;;;;20.30;13.73;;;12.90;92.90;;;;;;5036599;28;20402;-48
2022/10/25 06:01:26;;;;;;;27.67;15.93;;;12.90;93.00;;;;;;5043932;28;20029;-48
2022/10/25 06:03:54;;;;;;;23.10;15.38;;;12.90;93.00;;;;;;5032727;28;20102;-49
2022/10/25 06:06:22;;;;;;;26.20;13.55;;;12.90;92.90;;;;;;5034967;28;20029;-48
2022/10/25 06:08:48;;;;;;;20.25;14.13;;;12.80;92.90;;;;;;5042686;28;20454;-48
2022/10/25 06:11:17;;;;;;;27.00;13.93;;;12.80;93.00;;;;;;5053490;28;20021;-48
2022/10/25 06:13:47;;;;;;;32.88;15.07;;;12.80;93.00;;;;;;5027493;28;20367;-50
2022/10/25 06:16:16;;;;;;;23.65;14.68;;;12.80;93.00;;;;;;5045702;28;20029;-50
2022/10/25 06:18:42;;;;;;;25.38;14.23;;;12.70;93.00;;;;;;5037131;28;20033;-48
2022/10/25 06:21:11;;;;;;;25.02;15.30;;;12.80;93.10;;;;;;5052619;28;20039;-51
2022/10/25 06:23:38;;;;;;;24.02;14.20;;;12.80;93.20;;;;;;5043569;28;20604;-48
2022/10/25 06:26:13;;;;;;;31.05;15.75;;;12.80;93.20;;;;;;5055401;28;20472;-48
2022/10/25 06:28:43;;;;;;;20.65;13.25;;;12.80;93.20;;;;;;5019503;28;20021;-49
2022/10/25 06:31:28;;;;;;;30.00;13.80;;;12.80;93.30;;;;;;5050721;28;20032;-49
2022/10/25 06:33:55;;;;;;;21.70;12.23;;;12.90;93.30;;;;;;5050111;28;20028;-48
2022/10/25 06:36:29;;;;;;;26.88;13.63;;;12.90;93.30;;;;;;5023237;28;20025;-49
2022/10/25 06:38:56;;;;;;;23.98;13.25;;;12.90;93.30;;;;;;5044617;28;20098;-49
2022/10/25 06:41:26;;;;;;;19.60;12.13;;;12.90;93.30;;;;;;5024492;28;20029;-48
2022/10/25 06:43:54;;;;;;;17.55;12.07;;;12.90;93.20;;;;;;5049399;28;20017;-48
2022/10/25 06:46:29;;;;;;;15.65;11.05;;;12.90;93.20;;;;;;5049708;28;20021;-49
2022/10/25 06:48:56;;;;;;;28.80;13.32;;;12.90;93.00;;;;;;5053720;28;20512;-51
2022/10/25 06:51:25;;;;;;;25.48;12.25;;;12.90;93.00;;;;;;5034052;28;20034;-50
2022/10/25 06:53:56;;;;;;;22.25;10.63;;;12.90;93.00;;;;;;5050998;28;20033;-50
2022/10/25 06:56:27;;;;;;;19.05;12.15;;;12.90;93.00;;;;;;5049244;28;20052;-48
2022/10/25 06:58:54;;;;;;;22.92;11.80;;;12.90;92.90;;;;;;5051602;28;20338;-49
2022/10/25 07:01:22;;;;;;;24.15;11.32;;;12.90;92.90;;;;;;5035569;28;20029;-49
2022/10/25 07:03:52;;;;;;;24.60;12.15;;;12.90;92.80;;;;;;5039435;28;20351;-48
2022/10/25 07:06:34;;;;;;;16.73;11.50;;;13.00;92.80;;;;;;5032602;28;20040;-48
2022/10/25 07:09:01;;;;;;;21.60;11.23;;;12.90;92.70;;;;;;5027962;28;20430;-48
2022/10/25 07:11:34;;;;;;;20.52;11.40;;;13.00;92.80;;;;;;5047454;28;20037;-50
2022/10/25 07:14:04;;;;;;;25.58;10.93;;;13.00;92.80;;;;;;5047857;28;20718;-51
2022/10/25 07:16:30;;;;;;;27.15;13.68;;;13.00;92.90;;;;;;5048020;28;20032;-49
2022/10/25 07:19:00;;;;;;;32.05;13.82;;;13.10;92.90;;;;;;5044469;28;20041;-49
2022/10/25 07:21:27;;;;;;;;;;;13.20;92.90;;;;;;5022117;28;20095;-48
2022/10/25 07:23:53;;;;;;;22.25;12.27;;;13.10;92.90;;;;;;5050991;28;20242;-51
2022/10/25 07:26:40;;;;;;;24.08;12.48;;;13.20;92.80;;;;;;5041684;28;20037;-48
2022/10/25 07:29:08;;;;;;;22.98;12.05;;;13.20;92.80;;;;;;5052774;28;20063;-49
2022/10/25 07:31:39;;;;;;;18.48;12.20;;;13.20;92.80;;;;;;5035180;28;20032;-48
2022/10/25 07:34:06;;;;;;;24.67;15.82;;;13.10;92.70;;;;;;5038743;28;20338;-50
2022/10/25 07:36:33;;;;;;;22.00;14.15;;;13.20;92.90;;;;;;5033739;28;20040;-53
2022/10/25 07:38:59;;;;;;;26.10;12.77;;;13.30;92.90;;;;;;5048669;28;20434;-48
2022/10/25 07:41:27;;;;;;;24.95;14.98;;;13.30;92.70;;;;;;5027044;28;20024;-48
2022/10/25 07:43:54;;;;;;;27.50;13.50;;;13.30;92.60;;;;;;5034686;28;20104;-50
2022/10/25 07:46:20;;;;;;;25.67;13.60;;;13.30;92.60;;;;;;5042670;28;20025;-49
2022/10/25 07:48:46;;;;;;;25.17;11.68;;;13.30;92.50;;;;;;5028783;28;20046;-49
2022/10/25 07:51:15;;;;;;;22.08;12.27;;;13.20;92.40;;;;;;5053941;28;20056;-48
2022/10/25 07:53:42;;;;;;;26.15;11.73;;;13.30;92.50;;;;;;5046696;28;20030;-49
2022/10/25 07:56:14;;;;;;;25.60;13.45;;;13.40;92.50;;;;;;5035575;28;20033;-48
2022/10/25 07:58:40;;;;;;;21.95;12.95;;;13.40;92.40;;;;;;5051851;28;20025;-48
2022/10/25 08:01:09;;;;;;;24.58;12.07;;;13.50;92.30;;;;;;5052858;28;20029;-48
2022/10/25 08:03:36;;;;;;;21.25;11.23;;;13.50;92.00;;;;;;5052500;28;20021;-47
2022/10/25 08:06:04;;;;;;;22.33;12.30;;;13.50;92.10;;;;;;5052225;28;20110;-47
2022/10/25 08:08:30;;;;;;;22.63;11.73;;;13.50;92.00;;;;;;5052485;28;20029;-49
2022/10/25 08:11:03;;;;;;;22.65;12.02;;;13.60;92.10;;;;;;5046720;28;20037;-47
2022/10/25 08:13:29;;;;;;;19.33;11.20;;;13.60;92.00;;;;;;5050130;28;20485;-47
2022/10/25 08:15:55;;;;;;;21.50;11.68;;;13.60;92.00;;;;;;5034389;28;20056;-47
2022/10/25 08:18:22;;;;;;;24.48;11.68;;;13.60;92.00;;;;;;5034869;28;20123;-48
2022/10/25 08:20:49;;;;;;;22.75;12.27;;;13.70;92.10;;;;;;5052605;28;20043;-47
2022/10/25 08:23:16;;;;;;;23.50;11.65;;;13.90;92.10;;;;;;5051786;28;20060;-49
2022/10/25 08:25:44;;;;;;;22.98;12.55;;;13.90;92.00;;;;;;5048183;28;20025;-47
2022/10/25 08:28:11;;;;;;;21.55;12.15;;;14.00;91.80;;;;;;5028599;28;20033;-47
2022/10/25 08:30:39;;;;;;;19.45;10.68;;;14.10;91.50;;;;;;5052555;28;20603;-47
2022/10/25 08:33:06;;;;;;;20.15;10.45;;;14.10;91.20;;;;;;5046194;28;20055;-47
2022/10/25 08:35:32;;;;;;;18.83;10.85;;;14.00;91.00;;;;;;5044954;28;20020;-47
2022/10/25 08:38:02;;;;;;;15.55;9.90;;;14.10;91.00;;;;;;5052439;28;20335;-47
2022/10/25 08:41:05;;;;;;;16.05;9.15;;;14.10;91.10;;;;;;5048300;28;20033;-47
2022/10/25 08:43:59;;;;;;;16.73;9.57;;;14.10;90.80;;;;;;5048346;28;20029;-47
2022/10/25 08:46:55;;;;;;;14.88;8.90;;;14.20;90.90;;;;;;5050467;28;20044;-47
2022/10/25 08:49:54;;;;;;;19.10;9.45;;;14.30;90.80;;;;;;5027696;28;20077;-47
2022/10/25 08:52:46;;;;;;;15.18;8.75;;;14.50;90.50;;;;;;5045415;28;20096;-47
2022/10/25 08:55:19;;;;;;;16.15;7.30;;;14.60;89.70;;;;;;5049692;28;20190;-48
2022/10/25 08:57:48;;;;;;;17.70;8.70;;;14.60;89.30;;;;;;5043403;28;20037;-47
2022/10/25 09:00:21;;;;;;;15.10;8.35;;;14.60;89.50;;;;;;5051325;28;20033;-47
2022/10/25 09:03:12;;;;;;;19.83;8.30;;;14.60;89.30;;;;;;5052157;28;20025;-48
2022/10/25 09:06:11;;;;;;;14.98;8.52;;;14.70;89.00;;;;;;5031797;28;20116;-47
2022/10/25 09:08:40;;;;;;;14.77;7.80;;;14.90;89.30;;;;;;5047824;28;20040;-48
2022/10/25 09:11:43;;;;;;;14.93;7.28;;;14.90;88.40;;;;;;5046307;28;20038;-48
2022/10/25 09:14:37;;;;;;;13.38;6.90;;;15.10;88.10;;;;;;5034086;28;20048;-48
2022/10/25 09:17:40;;;;;;;13.60;5.88;;;15.20;87.70;;;;;;5050919;28;20021;-50
2022/10/25 09:20:33;;;;;;;13.77;7.30;;;15.30;87.00;;;;;;5050722;28;20033;-50
2022/10/25 09:23:19;;;;;;;16.30;5.50;;;15.40;86.30;;;;;;5033053;28;20461;-48
2022/10/25 09:26:03;;;;;;;11.60;5.15;;;15.40;86.20;;;;;;5034517;28;20049;-49
2022/10/25 09:29:05;;;;;;;15.35;6.80;;;15.50;86.80;;;;;;5038840;28;20029;-48
2022/10/25 09:31:47;;;;;;;13.27;5.57;;;15.60;86.30;;;;;;5038343;28;20098;-48
2022/10/25 09:34:18;;;;;;;12.55;5.18;;;15.70;85.70;;;;;;5033548;28;20087;-48
2022/10/25 09:36:47;;;;;;;17.95;5.43;;;15.80;85.30;;;;;;5034628;28;20064;-48
2022/10/25 09:39:39;;;;;;;15.60;5.25;;;15.90;85.10;;;;;;5051704;28;20021;-47
2022/10/25 09:42:18;;;;;;;12.93;4.78;;;15.70;85.10;;;;;;5050802;28;20120;-48
2022/10/25 09:44:53;;;;;;;15.32;5.70;;;15.70;85.00;;;;;;5050950;28;20025;-50
2022/10/25 09:47:29;;;;;;;17.05;6.03;;;15.70;84.80;;;;;;5051621;28;20039;-48
2022/10/25 09:50:10;;;;;;;24.33;6.18;;;15.70;84.80;;;;;;5042624;28;20124;-49
2022/10/25 09:52:44;;;;;;;14.85;4.88;;;15.70;85.40;;;;;;5041967;28;20064;-48
2022/10/25 09:55:40;;;;;;;13.32;6.30;;;15.80;85.10;;;;;;5032699;28;20125;-47
2022/10/25 09:58:15;;;;;;;14.95;5.28;;;15.90;84.80;;;;;;5054867;28;20135;-48
2022/10/25 10:00:42;;;;;;;14.02;4.43;;;16.00;84.30;;;;;;5054507;28;20106;-48
2022/10/25 10:03:12;;;;;;;12.60;4.50;;;16.30;83.70;;;;;;5054129;28;20039;-47
2022/10/25 10:05:55;;;;;;;14.00;5.07;;;16.20;83.30;;;;;;5055296;28;20021;-47
2022/10/25 10:08:24;;;;;;;13.48;4.50;;;16.20;83.50;;;;;;5054057;28;20037;-49
2022/10/25 10:10:52;;;;;;;13.70;4.88;;;16.20;83.60;;;;;;5040818;28;20024;-50
2022/10/25 10:13:34;;;;;;;12.68;5.82;;;16.20;83.00;;;;;;5054298;28;20442;-47
2022/10/25 10:16:37;;;;;;;17.85;6.07;;;16.00;83.20;;;;;;5050625;28;20351;-47
2022/10/25 10:19:22;;;;;;;10.95;4.53;;;15.90;84.00;;;;;;5037064;28;20044;-47
2022/10/25 10:21:49;;;;;;;12.68;4.18;;;15.70;83.40;;;;;;5036063;28;20021;-47
2022/10/25 10:24:27;;;;;;;12.60;4.85;;;15.60;84.20;;;;;;5053237;28;20052;-48
2022/10/25 10:27:19;;;;;;;11.93;4.43;;;15.40;84.60;;;;;;5039180;28;20035;-51
2022/10/25 10:30:06;;;;;;;11.52;4.78;;;15.20;84.40;;;;;;5055534;28;20021;-48
2022/10/25 10:32:39;;;;;;;16.27;5.80;;;14.90;85.20;;;;;;5053286;28;20351;-47
2022/10/25 10:35:23;;;;;;;16.73;5.80;;;14.70;85.50;;;;;;5054384;28;20064;-49
2022/10/25 10:37:49;;;;;;;15.52;5.65;;;14.50;86.20;;;;;;5046908;28;20049;-47
2022/10/25 10:40:18;;;;;;;12.50;5.72;;;14.40;86.50;;;;;;5021223;28;20025;-48
2022/10/25 10:42:47;;;;;;;11.25;5.40;;;14.30;86.70;;;;;;5047517;28;20068;-47
2022/10/25 10:45:17;;;;;;;16.08;6.55;;;14.30;87.20;;;;;;5054574;28;20060;-48
2022/10/25 10:47:47;;;;;;;14.95;6.00;;;14.50;87.60;;;;;;5035857;28;20057;-48
2022/10/25 10:50:34;;;;;;;15.45;5.55;;;14.70;87.70;;;;;;5054290;28;20029;-47
2022/10/25 10:53:07;;;;;;;18.38;6.07;;;14.80;87.30;;;;;;5052729;28;20091;-51
2022/10/25 10:55:33;;;;;;;12.48;4.72;;;14.90;86.80;;;;;;5037102;28;20021;-47
2022/10/25 10:58:31;;;;;;;18.15;5.82;;;14.90;86.80;;;;;;5054332;28;20472;-48
2022/10/25 11:01:29;;;;;;;15.50;6.15;;;15.10;87.00;;;;;;5035558;28;20041;-49
2022/10/25 11:03:58;;;;;;;19.10;5.70;;;15.30;86.60;;;;;;5051752;28;20123;-48
2022/10/25 11:06:32;;;;;;;13.25;5.40;;;15.40;86.00;;;;;;5054115;28;20024;-47
2022/10/25 11:09:19;;;;;;;11.70;3.83;;;15.50;85.00;;;;;;5033869;28;20022;-46
2022/10/25 11:12:04;;;;;;;10.43;3.65;;;15.90;84.90;;;;;;5050836;28;20116;-47
2022/10/25 11:14:31;;;;;;;11.65;4.05;;;16.40;83.30;;;;;;5053522;28;20331;-50
2022/10/25 11:17:23;;;;;;;12.90;4.57;;;16.70;81.20;;;;;;5038700;28;20462;-48
2022/10/25 11:20:09;;;;;;;15.85;3.88;;;16.70;80.20;;;;;;5053090;28;20442;-48
2022/10/25 11:22:46;;;;;;;11.45;4.75;;;16.40;80.50;;;;;;5049625;28;20033;-46
2022/10/25 11:25:42;;;;;;;15.80;4.20;;;16.20;81.00;;;;;;5052938;28;20037;-47
2022/10/25 11:28:17;;;;;;;14.35;4.05;;;15.90;81.30;;;;;;5052507;28;20063;-47
2022/10/25 11:31:01;;;;;;;11.77;4.50;;;15.80;82.10;;;;;;5053131;28;20025;-47
2022/10/25 11:34:06;;;;;;;13.93;5.63;;;15.80;82.80;;;;;;5052734;28;20025;-47
2022/10/25 11:36:54;;;;;;;12.95;5.03;;;15.90;83.40;;;;;;5032556;28;20029;-47
2022/10/25 11:40:07;;;;;;;12.05;4.05;;;15.90;83.10;;;;;;5053981;28;20377;-48
2022/10/25 11:43:13;;;;;;;12.18;3.78;;;16.00;83.10;;;;;;5049066;28;20378;-48
2022/10/25 11:45:44;;;;;;;13.80;4.38;;;15.90;82.80;;;;;;5051219;28;20048;-47
2022/10/25 11:48:24;;;;;;;12.98;3.78;;;15.60;83.00;;;;;;5052989;28;20055;-47
2022/10/25 11:51:03;;;;;;;13.68;4.45;;;15.60;83.20;;;;;;5018355;28;20096;-46
2022/10/25 11:53:53;;;;;;;12.93;4.88;;;15.60;83.30;;;;;;5030336;28;20022;-47
2022/10/25 11:56:35;;;;;;;10.82;3.33;;;15.70;82.60;;;;;;5053412;28;20343;-47
2022/10/25 11:59:25;;;;;;;9.25;3.58;;;15.70;83.00;;;;;;5032512;28;20026;-47
2022/10/25 12:02:02;;;;;;;;;;;15.80;82.90;;;;;;5046592;28;20033;-49
2022/10/25 12:05:02;;;;;;;15.93;3.50;;;15.90;82.50;;;;;;5046549;28;19917;-51
2022/10/25 12:07:57;;;;;;;9.90;3.90;;;15.90;82.40;;;;;;5030984;28;20040;-47
2022/10/25 12:10:38;;;;;;;13.00;3.72;;;15.80;82.10;;;;;;5032889;28;20116;-49
2022/10/25 12:13:28;;;;;;;15.50;4.50;;;15.90;82.20;;;;;;5039461;28;20116;-47
2022/10/25 12:15:57;;;;;;;9.98;3.42;;;15.80;81.50;;;;;;5028392;28;20037;-49
2022/10/25 12:18:56;;;;;;;11.07;3.63;;;15.90;81.90;;;;;;5040509;28;20037;-48
2022/10/25 12:21:26;;;;;;;10.52;3.08;;;16.00;81.90;;;;;;5032165;28;20041;-48
2022/10/25 12:23:54;;;;;;;7.18;2.90;;;15.90;81.30;;;;;;5046011;28;20025;-49
2022/10/25 12:26:30;;;;;;;10.35;3.05;;;15.80;81.70;;;;;;5033216;28;20045;-47
2022/10/25 12:29:00;;;;;;;10.60;3.38;;;15.70;81.90;;;;;;5051444;28;20031;-47
2022/10/25 12:31:41;;;;;;;14.93;4.15;;;15.70;82.60;;;;;;5041166;28;20029;-47
2022/10/25 12:34:32;;;;;;;11.52;3.70;;;15.90;82.10;;;;;;5035619;28;20075;-47
2022/10/25 12:37:28;;;;;;;9.98;3.53;;;16.20;81.90;;;;;;5040872;28;20125;-47
2022/10/25 12:39:55;;;;;;;15.43;3.63;;;16.40;81.50;;;;;;5004496;28;20037;-47
2022/10/25 12:42:32;;;;;;;11.32;2.72;;;16.60;80.20;;;;;;5032434;28;20026;-47
2022/10/25 12:45:35;;;;;;;14.57;2.53;;;16.60;79.00;;;;;;5039257;28;20040;-47
2022/10/25 12:48:38;;;;;;;11.13;3.22;;;16.70;79.40;;;;;;5045114;28;20049;-50
2022/10/25 12:51:31;;;;;;;10.43;3.25;;;16.90;80.10;;;;;;5018534;28;20044;-47
2022/10/25 12:54:13;;;;;;;7.40;2.90;;;16.90;78.90;;;;;;5049714;28;20083;-47
2022/10/25 12:57:13;;;;;;;11.45;3.75;;;16.60;78.70;;;;;;5051736;28;20463;-49
2022/10/25 13:00:03;;;;;;;12.63;2.53;;;16.30;79.60;;;;;;5046794;28;20028;-47
2022/10/25 13:02:47;;;;;;;11.82;3.00;;;16.00;80.90;;;;;;5050533;28;20029;-48
2022/10/25 13:05:54;;;;;;;10.68;2.88;;;15.80;81.30;;;;;;5043611;28;20117;-47
2022/10/25 13:08:24;;;;;;;16.77;3.45;;;15.60;81.90;;;;;;5045843;28;20338;-47
2022/10/25 13:11:02;;;;;;;13.27;2.92;;;15.60;82.60;;;;;;5048110;28;20027;-47
2022/10/25 13:13:46;;;;;;;8.77;3.35;;;15.60;83.10;;;;;;5050241;28;20107;-47